Time;durP1;ratioP1;P1;durP2;ratioP2;P2;SDS_P1;SDS_P2;PMS_P1;PMS_P2;Temp;Humidity;BMP_temperature;BMP_pressure;BME280_temperature;BME280_humidity;BME280_pressure;Samples;Min_cycle;Max_cycle;Signal;HPM_P1;HPM_P2
2023/10/05 00:06:15;;;;;;;3.63;2.78;;;;;;;23.18;50.50;101291.91;41300225;28;20046;-70
2023/10/05 00:26:20;;;;;;;4.38;2.58;;;;;;;23.29;50.67;101317.56;41305191;28;20572;-69
2023/10/05 00:46:22;;;;;;;5.15;3.05;;;;;;;23.31;50.93;101322.75;41294291;28;20066;-68
2023/10/05 01:06:31;;;;;;;7.22;2.42;;;;;;;23.18;50.53;101301.66;41320722;28;20060;-69
2023/10/05 01:26:37;;;;;;;4.32;2.95;;;;;;;23.06;50.26;101284.84;41319245;28;20050;-69
2023/10/05 01:46:38;;;;;;;4.45;2.80;;;;;;;23.13;50.02;101290.50;41301814;28;20111;-71
2023/10/05 02:06:49;;;;;;;3.60;2.67;;;;;;;23.11;50.37;101292.44;41318631;28;20100;-67
2023/10/05 02:47:00;;;;;;;4.85;2.85;;;;;;;22.86;49.98;101223.72;41296594;28;20073;-68
2023/10/05 03:07:02;;;;;;;3.88;2.70;;;;;;;22.92;50.16;101243.56;41299039;28;20119;-68
2023/10/05 03:27:03;;;;;;;3.67;2.65;;;;;;;23.03;50.08;101266.56;41301266;28;20058;-68
2023/10/05 03:47:04;;;;;;;5.07;3.15;;;;;;;22.78;49.98;101255.09;41295044;28;20050;-68
2023/10/05 04:07:05;;;;;;;5.53;3.38;;;;;;;22.76;49.68;101256.16;41274947;28;20511;-68
2023/10/05 04:27:07;;;;;;;8.48;3.72;;;;;;;22.99;49.93;101297.63;41276026;28;20046;-65
2023/10/05 04:47:10;;;;;;;11.45;4.15;;;;;;;22.88;49.72;101307.28;41284505;28;20038;-71
2023/10/05 05:07:11;;;;;;;12.05;4.10;;;;;;;22.55;49.00;101312.97;41343011;28;20092;-71
2023/10/05 05:27:21;;;;;;;7.18;3.95;;;;;;;22.43;46.56;101320.91;41343536;28;20116;-68
2023/10/05 05:47:21;;;;;;;8.40;4.03;;;;;;;22.63;47.86;101335.38;41327741;28;20046;-67
2023/10/05 06:07:25;;;;;;;15.45;4.80;;;;;;;22.50;47.81;101327.47;41333175;28;20054;-64
2023/10/05 06:27:26;;;;;;;9.68;4.43;;;;;;;22.45;47.83;101306.66;41320738;28;20958;-65
2023/10/05 06:47:48;;;;;;;9.23;4.00;;;;;;;22.49;48.11;101294.09;41329000;28;20127;-69
2023/10/05 07:07:47;;;;;;;10.52;4.18;;;;;;;22.63;48.39;101303.69;41311760;28;20053;-73
2023/10/05 07:27:47;;;;;;;9.85;4.40;;;;;;;22.57;46.12;101319.94;41319218;28;20511;-73
2023/10/05 07:47:49;;;;;;;9.23;4.38;;;;;;;22.55;47.64;101285.75;41335234;28;20142;-74
2023/10/05 08:07:49;;;;;;;18.60;4.63;;;;;;;22.67;48.29;101306.00;41409788;28;20098;-79
2023/10/05 08:27:51;;;;;;;21.60;4.70;;;;;;;22.86;48.63;101308.22;41449453;28;20034;-76
2023/10/05 08:47:54;;;;;;;13.63;4.22;;;;;;;23.12;48.58;101313.47;41430842;28;20139;-75
2023/10/05 09:07:56;;;;;;;16.13;4.40;;;;;;;23.18;48.69;101294.56;41414808;28;20035;-74
2023/10/05 09:28:09;;;;;;;8.25;3.30;;;;;;;23.28;49.28;101255.09;41370974;28;20054;-75
2023/10/05 09:48:16;;;;;;;7.43;3.28;;;;;;;23.44;49.26;101248.72;41396381;28;20053;-75
2023/10/05 10:08:26;;;;;;;10.13;4.05;;;;;;;23.52;49.29;101221.69;41407071;28;20049;-74
2023/10/05 10:48:57;;;;;;;;;;;;;;;23.75;49.40;101183.78;41418153;28;20046;-77
2023/10/05 11:08:59;;;;;;;21.48;5.18;;;;;;;24.05;48.03;101160.44;41469109;28;19980;-77
2023/10/05 11:29:15;;;;;;;12.77;4.75;;;;;;;24.29;48.26;101117.97;41442432;28;20061;-74
2023/10/05 11:49:33;;;;;;;8.68;4.00;;;;;;;24.46;45.46;101085.72;41435810;28;20069;-72
2023/10/05 12:09:42;;;;;;;14.38;3.78;;;;;;;24.68;44.02;101077.84;41366028;28;20049;-72
2023/10/05 12:29:44;;;;;;;5.88;2.47;;;;;;;24.19;36.74;101041.09;41382693;28;20057;-69
2023/10/05 12:49:45;;;;;;;9.80;3.50;;;;;;;24.61;40.96;101012.13;41435800;28;20107;-72
2023/10/05 13:09:58;;;;;;;12.82;4.43;;;;;;;24.90;41.00;101024.81;41395501;28;20109;-73
2023/10/05 13:29:58;;;;;;;42.38;13.27;;;;;;;24.68;42.33;100987.81;41416460;28;20034;-70
2023/10/05 13:50:07;;;;;;;30.05;9.88;;;;;;;24.75;42.15;100979.22;41401294;28;20114;-70
2023/10/05 14:10:10;;;;;;;53.10;9.52;;;;;;;24.84;42.55;100964.38;41392293;28;20057;-71
2023/10/05 14:30:16;;;;;;;27.52;6.75;;;;;;;24.70;42.72;100962.88;41386959;28;20053;-68
2023/10/05 14:50:18;;;;;;;15.13;4.80;;;;;;;24.63;41.65;100948.44;41398895;28;20038;-70
2023/10/05 15:10:19;;;;;;;6.10;3.85;;;;;;;24.46;39.87;100960.44;41370331;28;20058;-86
2023/10/05 15:30:23;;;;;;;8.93;3.53;;;;;;;24.26;39.36;100954.97;41404517;28;20042;-73
2023/10/05 15:50:26;;;;;;;8.35;3.55;;;;;;;24.14;39.10;100953.31;41383070;28;20057;-74
2023/10/05 16:10:29;;;;;;;19.13;4.10;;;;;;;24.09;41.67;100958.16;41339823;28;20141;-75
2023/10/05 16:30:30;;;;;;;17.52;3.88;;;;;;;23.79;41.15;100965.75;41365125;28;20031;-75
2023/10/05 16:50:36;;;;;;;15.93;3.58;;;;;;;24.02;42.67;100981.59;41386607;28;20034;-71
2023/10/05 17:10:37;;;;;;;16.92;3.25;;;;;;;24.10;43.86;100986.31;41352433;28;20053;-74
2023/10/05 17:30:38;;;;;;;9.80;4.30;;;;;;;24.12;45.27;100989.66;41319821;28;20053;-73
2023/10/05 17:50:41;;;;;;;15.65;7.70;;;;;;;24.25;46.21;101011.50;41318324;28;20042;-74
2023/10/05 18:10:42;;;;;;;14.70;8.20;;;;;;;23.98;46.01;100994.25;41302324;28;20503;-71
2023/10/05 18:30:43;;;;;;;14.18;7.35;;;;;;;24.05;45.62;100993.78;41313458;28;20137;-72
2023/10/05 18:50:45;;;;;;;12.40;6.20;;;;;;;24.13;45.44;101037.16;41307784;28;20087;-70
2023/10/05 19:10:47;;;;;;;15.52;5.72;;;;;;;23.98;46.19;101031.28;41319217;28;20095;-70
2023/10/05 19:30:48;;;;;;;14.07;5.13;;;;;;;23.79;47.06;101057.47;41342115;28;20116;-80
2023/10/05 19:50:49;;;;;;;12.55;5.80;;;;;;;23.76;47.20;101045.31;41368708;28;20061;-85
2023/10/05 20:10:51;;;;;;;11.02;5.15;;;;;;;23.72;48.06;101058.94;41395803;28;20050;-81
2023/10/05 20:30:51;;;;;;;9.88;4.63;;;;;;;23.72;48.20;101057.09;41399567;28;20038;-82
2023/10/05 20:50:52;;;;;;;9.60;4.57;;;;;;;23.83;48.60;101072.97;41401808;28;20038;-79
2023/10/05 21:10:52;;;;;;;7.82;4.10;;;;;;;23.59;48.80;101040.50;41450217;28;20392;-80
2023/10/05 21:30:54;;;;;;;6.03;3.90;;;;;;;23.56;48.89;101032.81;41435933;28;20438;-86
2023/10/05 21:50:54;;;;;;;6.45;3.47;;;;;;;23.63;49.37;101053.38;41378658;28;20065;-76
2023/10/05 22:10:55;;;;;;;4.57;3.50;;;;;;;23.50;49.44;101053.47;41369397;28;20050;-79
2023/10/05 22:30:57;;;;;;;5.40;3.53;;;;;;;23.60;49.33;101076.56;41377084;28;20038;-82
2023/10/05 22:50:57;;;;;;;6.10;3.38;;;;;;;23.38;49.31;101085.31;41366052;28;20049;-85
2023/10/05 23:10:59;;;;;;;6.68;3.47;;;;;;;23.32;48.97;101082.16;41368749;28;20049;-83
2023/10/05 23:31:08;;;;;;;5.65;3.03;;;;;;;23.37;49.15;101110.88;41367453;28;20134;-79
2023/10/05 23:51:08;;;;;;;6.18;3.33;;;;;;;23.29;49.35;101100.03;41365362;28;20037;-81
